sensor_id;sensor_type;location;lat;lon;timestamp;P1;durP1;ratioP1;P2;durP2;ratioP2
7983;SDS011;4037;47.980;10.172;2023-06-10T00:00:48;9.93;;;6.90;;
7983;SDS011;4037;47.980;10.172;2023-06-10T00:03:15;9.57;;;6.97;;
7983;SDS011;4037;47.980;10.172;2023-06-10T00:05:42;7.43;;;6.17;;
7983;SDS011;4037;47.980;10.172;2023-06-10T00:08:08;7.10;;;6.20;;
7983;SDS011;4037;47.980;10.172;2023-06-10T00:10:36;6.03;;;5.23;;
7983;SDS011;4037;47.980;10.172;2023-06-10T00:13:02;6.60;;;5.63;;
7983;SDS011;4037;47.980;10.172;2023-06-10T00:15:29;7.90;;;6.17;;
7983;SDS011;4037;47.980;10.172;2023-06-10T00:17:55;6.27;;;5.67;;
7983;SDS011;4037;47.980;10.172;2023-06-10T00:20:21;6.33;;;5.70;;
7983;SDS011;4037;47.980;10.172;2023-06-10T00:22:51;6.13;;;5.53;;
7983;SDS011;4037;47.980;10.172;2023-06-10T00:25:18;7.10;;;5.80;;
7983;SDS011;4037;47.980;10.172;2023-06-10T00:27:44;7.00;;;5.83;;
7983;SDS011;4037;47.980;10.172;2023-06-10T00:30:10;5.90;;;5.30;;
7983;SDS011;4037;47.980;10.172;2023-06-10T00:32:37;6.77;;;5.93;;
7983;SDS011;4037;47.980;10.172;2023-06-10T00:35:03;6.43;;;5.77;;
7983;SDS011;4037;47.980;10.172;2023-06-10T00:37:29;6.23;;;5.63;;
7983;SDS011;4037;47.980;10.172;2023-06-10T00:39:55;6.40;;;5.50;;
7983;SDS011;4037;47.980;10.172;2023-06-10T00:42:21;6.63;;;5.90;;
7983;SDS011;4037;47.980;10.172;2023-06-10T00:44:49;6.90;;;6.20;;
7983;SDS011;4037;47.980;10.172;2023-06-10T00:47:15;7.23;;;6.53;;
7983;SDS011;4037;47.980;10.172;2023-06-10T00:49:41;6.97;;;5.80;;
7983;SDS011;4037;47.980;10.172;2023-06-10T00:52:07;6.60;;;5.90;;
7983;SDS011;4037;47.980;10.172;2023-06-10T00:54:35;7.60;;;5.70;;
7983;SDS011;4037;47.980;10.172;2023-06-10T00:57:01;6.70;;;5.87;;
7983;SDS011;4037;47.980;10.172;2023-06-10T00:59:28;7.10;;;5.80;;
7983;SDS011;4037;47.980;10.172;2023-06-10T01:01:54;7.10;;;6.43;;
7983;SDS011;4037;47.980;10.172;2023-06-10T01:04:21;6.43;;;5.83;;
7983;SDS011;4037;47.980;10.172;2023-06-10T01:09:25;6.13;;;5.60;;
7983;SDS011;4037;47.980;10.172;2023-06-10T01:12:10;7.67;;;5.93;;
7983;SDS011;4037;47.980;10.172;2023-06-10T01:14:37;6.03;;;5.40;;
7983;SDS011;4037;47.980;10.172;2023-06-10T01:17:07;8.47;;;5.93;;
7983;SDS011;4037;47.980;10.172;2023-06-10T01:19:34;7.40;;;6.60;;
7983;SDS011;4037;47.980;10.172;2023-06-10T01:22:01;7.07;;;6.40;;
7983;SDS011;4037;47.980;10.172;2023-06-10T01:24:27;7.20;;;6.50;;
7983;SDS011;4037;47.980;10.172;2023-06-10T01:26:54;7.20;;;6.50;;
7983;SDS011;4037;47.980;10.172;2023-06-10T01:29:24;9.67;;;6.30;;
7983;SDS011;4037;47.980;10.172;2023-06-10T01:31:54;9.23;;;6.43;;
7983;SDS011;4037;47.980;10.172;2023-06-10T01:34:25;8.33;;;6.60;;
7983;SDS011;4037;47.980;10.172;2023-06-10T01:36:52;7.10;;;6.40;;
7983;SDS011;4037;47.980;10.172;2023-06-10T01:39:21;6.17;;;5.57;;
7983;SDS011;4037;47.980;10.172;2023-06-10T01:41:48;6.97;;;6.27;;
7983;SDS011;4037;47.980;10.172;2023-06-10T01:44:17;8.60;;;6.43;;
7983;SDS011;4037;47.980;10.172;2023-06-10T01:46:43;7.67;;;6.97;;
7983;SDS011;4037;47.980;10.172;2023-06-10T01:49:09;7.30;;;6.47;;
7983;SDS011;4037;47.980;10.172;2023-06-10T01:51:35;7.77;;;6.77;;
7983;SDS011;4037;47.980;10.172;2023-06-10T01:54:01;7.60;;;6.73;;
7983;SDS011;4037;47.980;10.172;2023-06-10T01:56:27;7.30;;;6.17;;
7983;SDS011;4037;47.980;10.172;2023-06-10T01:58:53;7.60;;;6.73;;
7983;SDS011;4037;47.980;10.172;2023-06-10T02:01:23;7.83;;;6.50;;
7983;SDS011;4037;47.980;10.172;2023-06-10T02:03:49;7.37;;;6.67;;
7983;SDS011;4037;47.980;10.172;2023-06-10T02:06:15;9.47;;;6.90;;
7983;SDS011;4037;47.980;10.172;2023-06-10T02:08:42;8.37;;;7.57;;
7983;SDS011;4037;47.980;10.172;2023-06-10T02:11:08;6.50;;;5.90;;
7983;SDS011;4037;47.980;10.172;2023-06-10T02:13:34;9.03;;;6.73;;
7983;SDS011;4037;47.980;10.172;2023-06-10T02:16:00;8.63;;;6.97;;
7983;SDS011;4037;47.980;10.172;2023-06-10T02:18:26;7.70;;;6.90;;
7983;SDS011;4037;47.980;10.172;2023-06-10T02:20:53;9.47;;;7.07;;
7983;SDS011;4037;47.980;10.172;2023-06-10T02:23:19;8.27;;;7.40;;
7983;SDS011;4037;47.980;10.172;2023-06-10T02:25:45;8.93;;;7.53;;
7983;SDS011;4037;47.980;10.172;2023-06-10T02:28:13;7.83;;;6.70;;
7983;SDS011;4037;47.980;10.172;2023-06-10T02:30:40;8.30;;;7.50;;
7983;SDS011;4037;47.980;10.172;2023-06-10T02:33:06;7.93;;;7.23;;
7983;SDS011;4037;47.980;10.172;2023-06-10T02:35:35;8.27;;;7.47;;
7983;SDS011;4037;47.980;10.172;2023-06-10T02:38:01;7.90;;;7.10;;
7983;SDS011;4037;47.980;10.172;2023-06-10T02:40:27;9.10;;;7.60;;
7983;SDS011;4037;47.980;10.172;2023-06-10T02:42:53;7.87;;;7.03;;
7983;SDS011;4037;47.980;10.172;2023-06-10T02:45:20;9.77;;;7.87;;
7983;SDS011;4037;47.980;10.172;2023-06-10T02:47:46;8.37;;;7.47;;
7983;SDS011;4037;47.980;10.172;2023-06-10T02:50:12;8.47;;;7.63;;
7983;SDS011;4037;47.980;10.172;2023-06-10T02:52:38;8.73;;;7.83;;
7983;SDS011;4037;47.980;10.172;2023-06-10T02:55:04;8.57;;;7.67;;
7983;SDS011;4037;47.980;10.172;2023-06-10T02:57:30;8.90;;;7.57;;
7983;SDS011;4037;47.980;10.172;2023-06-10T02:59:56;8.83;;;7.93;;
7983;SDS011;4037;47.980;10.172;2023-06-10T03:02:23;8.03;;;6.97;;
7983;SDS011;4037;47.980;10.172;2023-06-10T03:04:53;7.93;;;7.10;;
7983;SDS011;4037;47.980;10.172;2023-06-10T03:07:20;8.80;;;7.50;;
7983;SDS011;4037;47.980;10.172;2023-06-10T03:09:46;11.37;;;7.90;;
7983;SDS011;4037;47.980;10.172;2023-06-10T03:12:12;8.83;;;7.60;;
7983;SDS011;4037;47.980;10.172;2023-06-10T03:14:38;7.87;;;7.17;;
7983;SDS011;4037;47.980;10.172;2023-06-10T03:17:05;8.37;;;7.00;;
7983;SDS011;4037;47.980;10.172;2023-06-10T03:19:33;9.20;;;8.30;;
7983;SDS011;4037;47.980;10.172;2023-06-10T03:22:09;7.80;;;7.00;;
7983;SDS011;4037;47.980;10.172;2023-06-10T03:24:35;9.60;;;8.60;;
7983;SDS011;4037;47.980;10.172;2023-06-10T03:27:04;9.70;;;7.93;;
7983;SDS011;4037;47.980;10.172;2023-06-10T03:29:30;8.93;;;7.33;;
7983;SDS011;4037;47.980;10.172;2023-06-10T03:31:57;9.07;;;8.17;;
7983;SDS011;4037;47.980;10.172;2023-06-10T03:34:23;8.47;;;7.67;;
7983;SDS011;4037;47.980;10.172;2023-06-10T03:36:49;8.97;;;8.10;;
7983;SDS011;4037;47.980;10.172;2023-06-10T03:39:15;9.73;;;8.13;;
7983;SDS011;4037;47.980;10.172;2023-06-10T03:41:41;8.87;;;7.97;;
7983;SDS011;4037;47.980;10.172;2023-06-10T03:44:07;10.13;;;8.20;;
7983;SDS011;4037;47.980;10.172;2023-06-10T03:46:33;8.87;;;7.97;;
7983;SDS011;4037;47.980;10.172;2023-06-10T03:48:59;9.50;;;8.30;;
7983;SDS011;4037;47.980;10.172;2023-06-10T03:51:26;9.27;;;8.37;;
7983;SDS011;4037;47.980;10.172;2023-06-10T03:53:52;9.10;;;8.20;;
7983;SDS011;4037;47.980;10.172;2023-06-10T03:56:18;10.67;;;9.13;;
7983;SDS011;4037;47.980;10.172;2023-06-10T03:58:44;9.30;;;8.30;;
7983;SDS011;4037;47.980;10.172;2023-06-10T04:01:10;9.10;;;7.87;;
7983;SDS011;4037;47.980;10.172;2023-06-10T04:03:38;10.57;;;9.53;;
7983;SDS011;4037;47.980;10.172;2023-06-10T04:06:06;9.73;;;8.73;;
7983;SDS011;4037;47.980;10.172;2023-06-10T04:08:32;10.00;;;8.93;;
7983;SDS011;4037;47.980;10.172;2023-06-10T04:10:58;9.07;;;7.63;;
7983;SDS011;4037;47.980;10.172;2023-06-10T04:13:24;8.70;;;7.43;;
7983;SDS011;4037;47.980;10.172;2023-06-10T04:15:51;9.23;;;7.90;;
7983;SDS011;4037;47.980;10.172;2023-06-10T04:18:17;9.13;;;8.07;;
7983;SDS011;4037;47.980;10.172;2023-06-10T04:20:43;9.37;;;8.40;;
7983;SDS011;4037;47.980;10.172;2023-06-10T04:23:10;9.97;;;8.97;;
7983;SDS011;4037;47.980;10.172;2023-06-10T04:25:35;10.37;;;8.93;;
7983;SDS011;4037;47.980;10.172;2023-06-10T04:28:01;11.87;;;8.97;;
7983;SDS011;4037;47.980;10.172;2023-06-10T04:30:28;8.83;;;7.93;;
7983;SDS011;4037;47.980;10.172;2023-06-10T04:32:54;11.53;;;8.93;;
7983;SDS011;4037;47.980;10.172;2023-06-10T04:35:20;10.40;;;8.67;;
7983;SDS011;4037;47.980;10.172;2023-06-10T04:37:46;12.30;;;8.43;;
7983;SDS011;4037;47.980;10.172;2023-06-10T04:40:12;11.60;;;9.13;;
7983;SDS011;4037;47.980;10.172;2023-06-10T04:42:39;10.33;;;9.23;;
7983;SDS011;4037;47.980;10.172;2023-06-10T04:45:05;12.40;;;9.40;;
7983;SDS011;4037;47.980;10.172;2023-06-10T04:47:31;10.57;;;9.47;;
7983;SDS011;4037;47.980;10.172;2023-06-10T04:49:58;11.40;;;10.30;;
7983;SDS011;4037;47.980;10.172;2023-06-10T04:52:24;13.00;;;10.20;;
7983;SDS011;4037;47.980;10.172;2023-06-10T04:54:50;9.90;;;8.90;;
7983;SDS011;4037;47.980;10.172;2023-06-10T04:57:16;11.90;;;10.53;;
7983;SDS011;4037;47.980;10.172;2023-06-10T04:59:42;12.20;;;9.03;;
7983;SDS011;4037;47.980;10.172;2023-06-10T05:02:08;10.27;;;8.47;;
7983;SDS011;4037;47.980;10.172;2023-06-10T05:04:35;12.97;;;9.73;;
7983;SDS011;4037;47.980;10.172;2023-06-10T05:07:01;10.87;;;9.23;;
7983;SDS011;4037;47.980;10.172;2023-06-10T05:09:27;9.83;;;8.83;;
7983;SDS011;4037;47.980;10.172;2023-06-10T05:11:54;10.43;;;9.00;;
7983;SDS011;4037;47.980;10.172;2023-06-10T05:14:20;10.07;;;8.67;;
7983;SDS011;4037;47.980;10.172;2023-06-10T05:16:46;10.83;;;8.67;;
7983;SDS011;4037;47.980;10.172;2023-06-10T05:19:12;9.60;;;8.70;;
7983;SDS011;4037;47.980;10.172;2023-06-10T05:21:38;8.93;;;8.03;;
7983;SDS011;4037;47.980;10.172;2023-06-10T05:24:04;8.93;;;7.93;;
7983;SDS011;4037;47.980;10.172;2023-06-10T05:26:31;10.13;;;8.93;;
7983;SDS011;4037;47.980;10.172;2023-06-10T05:28:58;9.23;;;8.30;;
7983;SDS011;4037;47.980;10.172;2023-06-10T05:31:24;10.73;;;8.80;;
7983;SDS011;4037;47.980;10.172;2023-06-10T05:33:50;9.20;;;8.30;;
7983;SDS011;4037;47.980;10.172;2023-06-10T05:36:16;10.70;;;7.60;;
7983;SDS011;4037;47.980;10.172;2023-06-10T05:38:42;8.40;;;7.60;;
7983;SDS011;4037;47.980;10.172;2023-06-10T05:41:08;9.23;;;8.23;;
7983;SDS011;4037;47.980;10.172;2023-06-10T05:43:34;10.57;;;8.37;;
7983;SDS011;4037;47.980;10.172;2023-06-10T05:46:00;9.33;;;8.20;;
7983;SDS011;4037;47.980;10.172;2023-06-10T05:48:26;8.60;;;7.80;;
7983;SDS011;4037;47.980;10.172;2023-06-10T05:50:52;9.33;;;8.03;;
7983;SDS011;4037;47.980;10.172;2023-06-10T05:53:18;10.60;;;9.27;;
7983;SDS011;4037;47.980;10.172;2023-06-10T05:55:45;9.43;;;8.00;;
7983;SDS011;4037;47.980;10.172;2023-06-10T05:58:12;9.33;;;8.30;;
7983;SDS011;4037;47.980;10.172;2023-06-10T06:00:38;10.10;;;8.53;;
7983;SDS011;4037;47.980;10.172;2023-06-10T06:03:07;9.20;;;8.30;;
7983;SDS011;4037;47.980;10.172;2023-06-10T06:05:34;8.23;;;7.33;;
7983;SDS011;4037;47.980;10.172;2023-06-10T06:08:02;9.57;;;8.23;;
7983;SDS011;4037;47.980;10.172;2023-06-10T06:10:28;8.97;;;8.07;;
7983;SDS011;4037;47.980;10.172;2023-06-10T06:12:54;8.47;;;7.63;;
7983;SDS011;4037;47.980;10.172;2023-06-10T06:15:20;8.70;;;7.53;;
7983;SDS011;4037;47.980;10.172;2023-06-10T06:17:46;8.87;;;7.37;;
7983;SDS011;4037;47.980;10.172;2023-06-10T06:20:12;8.37;;;7.53;;
7983;SDS011;4037;47.980;10.172;2023-06-10T06:22:38;8.60;;;7.80;;
7983;SDS011;4037;47.980;10.172;2023-06-10T06:25:04;9.80;;;8.63;;
7983;SDS011;4037;47.980;10.172;2023-06-10T06:27:31;10.27;;;8.57;;
7983;SDS011;4037;47.980;10.172;2023-06-10T06:29:57;9.97;;;8.40;;
7983;SDS011;4037;47.980;10.172;2023-06-10T06:32:23;9.53;;;8.53;;
7983;SDS011;4037;47.980;10.172;2023-06-10T06:34:51;9.30;;;8.30;;
7983;SDS011;4037;47.980;10.172;2023-06-10T06:37:20;9.17;;;8.03;;
7983;SDS011;4037;47.980;10.172;2023-06-10T06:39:46;9.63;;;8.63;;
7983;SDS011;4037;47.980;10.172;2023-06-10T06:42:12;9.60;;;8.60;;
7983;SDS011;4037;47.980;10.172;2023-06-10T06:44:38;9.20;;;8.27;;
7983;SDS011;4037;47.980;10.172;2023-06-10T06:47:04;8.73;;;7.83;;
7983;SDS011;4037;47.980;10.172;2023-06-10T06:49:30;9.67;;;7.90;;
7983;SDS011;4037;47.980;10.172;2023-06-10T06:51:56;9.07;;;7.43;;
7983;SDS011;4037;47.980;10.172;2023-06-10T06:54:22;9.20;;;7.80;;
7983;SDS011;4037;47.980;10.172;2023-06-10T06:56:50;9.23;;;8.27;;
7983;SDS011;4037;47.980;10.172;2023-06-10T06:59:16;9.40;;;7.53;;
7983;SDS011;4037;47.980;10.172;2023-06-10T07:01:44;10.83;;;8.77;;
7983;SDS011;4037;47.980;10.172;2023-06-10T07:04:10;9.00;;;8.10;;
7983;SDS011;4037;47.980;10.172;2023-06-10T07:06:36;8.13;;;7.07;;
7983;SDS011;4037;47.980;10.172;2023-06-10T07:09:03;8.27;;;7.00;;
7983;SDS011;4037;47.980;10.172;2023-06-10T07:11:29;9.77;;;7.37;;
7983;SDS011;4037;47.980;10.172;2023-06-10T07:13:55;7.97;;;7.10;;
7983;SDS011;4037;47.980;10.172;2023-06-10T07:16:21;8.60;;;7.70;;
7983;SDS011;4037;47.980;10.172;2023-06-10T07:18:47;7.93;;;7.13;;
7983;SDS011;4037;47.980;10.172;2023-06-10T07:21:14;8.80;;;7.07;;
7983;SDS011;4037;47.980;10.172;2023-06-10T07:23:43;8.23;;;6.77;;
7983;SDS011;4037;47.980;10.172;2023-06-10T07:26:09;7.97;;;7.17;;
7983;SDS011;4037;47.980;10.172;2023-06-10T07:28:41;8.67;;;7.27;;
7983;SDS011;4037;47.980;10.172;2023-06-10T07:31:08;7.67;;;6.60;;
7983;SDS011;4037;47.980;10.172;2023-06-10T07:33:34;7.70;;;6.90;;
7983;SDS011;4037;47.980;10.172;2023-06-10T07:36:00;10.13;;;6.90;;
7983;SDS011;4037;47.980;10.172;2023-06-10T07:38:26;7.57;;;6.27;;
7983;SDS011;4037;47.980;10.172;2023-06-10T07:40:52;6.80;;;6.20;;
7983;SDS011;4037;47.980;10.172;2023-06-10T07:43:18;6.53;;;5.87;;
7983;SDS011;4037;47.980;10.172;2023-06-10T07:45:44;9.20;;;6.23;;
7983;SDS011;4037;47.980;10.172;2023-06-10T07:48:10;8.00;;;6.27;;
7983;SDS011;4037;47.980;10.172;2023-06-10T07:50:37;6.40;;;5.40;;
7983;SDS011;4037;47.980;10.172;2023-06-10T07:53:03;6.37;;;5.73;;
7983;SDS011;4037;47.980;10.172;2023-06-10T07:55:29;6.03;;;5.30;;
7983;SDS011;4037;47.980;10.172;2023-06-10T07:57:55;5.97;;;5.13;;
7983;SDS011;4037;47.980;10.172;2023-06-10T08:00:21;6.80;;;5.87;;
7983;SDS011;4037;47.980;10.172;2023-06-10T08:02:47;7.27;;;6.00;;
7983;SDS011;4037;47.980;10.172;2023-06-10T08:05:13;5.70;;;5.10;;
7983;SDS011;4037;47.980;10.172;2023-06-10T08:07:39;6.13;;;5.53;;
7983;SDS011;4037;47.980;10.172;2023-06-10T08:10:06;6.40;;;5.70;;
7983;SDS011;4037;47.980;10.172;2023-06-10T08:12:32;6.30;;;5.50;;
7983;SDS011;4037;47.980;10.172;2023-06-10T08:14:58;5.97;;;5.37;;
7983;SDS011;4037;47.980;10.172;2023-06-10T08:17:24;7.40;;;5.53;;
7983;SDS011;4037;47.980;10.172;2023-06-10T08:19:50;7.40;;;6.10;;
7983;SDS011;4037;47.980;10.172;2023-06-10T08:22:16;5.93;;;5.32;;
7983;SDS011;4037;47.980;10.172;2023-06-10T08:24:43;6.77;;;5.57;;
7983;SDS011;4037;47.980;10.172;2023-06-10T08:27:09;6.50;;;5.57;;
7983;SDS011;4037;47.980;10.172;2023-06-10T08:29:35;6.80;;;6.10;;
7983;SDS011;4037;47.980;10.172;2023-06-10T08:32:01;5.30;;;4.75;;
7983;SDS011;4037;47.980;10.172;2023-06-10T08:34:28;6.00;;;5.07;;
7983;SDS011;4037;47.980;10.172;2023-06-10T08:36:54;8.38;;;4.93;;
7983;SDS011;4037;47.980;10.172;2023-06-10T08:39:23;6.05;;;4.30;;
7983;SDS011;4037;47.980;10.172;2023-06-10T08:44:27;4.78;;;4.28;;
7983;SDS011;4037;47.980;10.172;2023-06-10T08:46:55;5.65;;;4.47;;
7983;SDS011;4037;47.980;10.172;2023-06-10T08:49:21;5.27;;;4.47;;
7983;SDS011;4037;47.980;10.172;2023-06-10T08:51:50;4.93;;;4.32;;
7983;SDS011;4037;47.980;10.172;2023-06-10T08:54:22;4.47;;;4.07;;
7983;SDS011;4037;47.980;10.172;2023-06-10T08:56:50;5.63;;;4.22;;
7983;SDS011;4037;47.980;10.172;2023-06-10T08:59:17;5.90;;;4.20;;
7983;SDS011;4037;47.980;10.172;2023-06-10T09:01:44;4.80;;;4.40;;
7983;SDS011;4037;47.980;10.172;2023-06-10T09:04:10;4.18;;;3.78;;
7983;SDS011;4037;47.980;10.172;2023-06-10T09:06:36;4.35;;;3.95;;
7983;SDS011;4037;47.980;10.172;2023-06-10T09:09:03;6.15;;;4.40;;
7983;SDS011;4037;47.980;10.172;2023-06-10T09:11:31;5.55;;;4.50;;
7983;SDS011;4037;47.980;10.172;2023-06-10T09:13:57;4.57;;;3.97;;
7983;SDS011;4037;47.980;10.172;2023-06-10T09:16:23;10.93;;;6.05;;
7983;SDS011;4037;47.980;10.172;2023-06-10T09:18:50;4.93;;;4.45;;
7983;SDS011;4037;47.980;10.172;2023-06-10T09:21:21;5.57;;;4.97;;
7983;SDS011;4037;47.980;10.172;2023-06-10T09:23:47;4.10;;;3.70;;
7983;SDS011;4037;47.980;10.172;2023-06-10T09:26:13;4.20;;;3.80;;
7983;SDS011;4037;47.980;10.172;2023-06-10T09:28:41;4.47;;;4.07;;
7983;SDS011;4037;47.980;10.172;2023-06-10T09:31:07;5.57;;;4.45;;
7983;SDS011;4037;47.980;10.172;2023-06-10T09:33:36;5.03;;;4.20;;
7983;SDS011;4037;47.980;10.172;2023-06-10T09:36:03;4.35;;;3.90;;
7983;SDS011;4037;47.980;10.172;2023-06-10T09:38:33;4.78;;;4.38;;
7983;SDS011;4037;47.980;10.172;2023-06-10T09:41:00;5.50;;;4.22;;
7983;SDS011;4037;47.980;10.172;2023-06-10T09:43:42;4.80;;;4.40;;
7983;SDS011;4037;47.980;10.172;2023-06-10T09:46:18;4.15;;;3.65;;
7983;SDS011;4037;47.980;10.172;2023-06-10T09:48:45;4.47;;;4.07;;
7983;SDS011;4037;47.980;10.172;2023-06-10T09:51:12;5.07;;;4.55;;
7983;SDS011;4037;47.980;10.172;2023-06-10T09:53:38;4.60;;;4.20;;
7983;SDS011;4037;47.980;10.172;2023-06-10T09:56:05;4.82;;;3.90;;
7983;SDS011;4037;47.980;10.172;2023-06-10T09:58:37;4.45;;;3.90;;
7983;SDS011;4037;47.980;10.172;2023-06-10T10:01:08;5.10;;;4.13;;
7983;SDS011;4037;47.980;10.172;2023-06-10T10:03:42;7.82;;;4.57;;
7983;SDS011;4037;47.980;10.172;2023-06-10T10:06:08;4.25;;;3.85;;
7983;SDS011;4037;47.980;10.172;2023-06-10T10:08:35;4.55;;;3.85;;
7983;SDS011;4037;47.980;10.172;2023-06-10T10:11:01;8.05;;;4.55;;
7983;SDS011;4037;47.980;10.172;2023-06-10T10:13:27;4.65;;;3.92;;
7983;SDS011;4037;47.980;10.172;2023-06-10T10:15:54;5.40;;;3.95;;
7983;SDS011;4037;47.980;10.172;2023-06-10T10:18:21;4.70;;;4.25;;
7983;SDS011;4037;47.980;10.172;2023-06-10T10:20:53;5.40;;;4.25;;
7983;SDS011;4037;47.980;10.172;2023-06-10T10:23:30;5.28;;;4.20;;
7983;SDS011;4037;47.980;10.172;2023-06-10T10:25:57;5.38;;;4.38;;
7983;SDS011;4037;47.980;10.172;2023-06-10T10:28:34;4.30;;;3.90;;
7983;SDS011;4037;47.980;10.172;2023-06-10T10:31:05;4.65;;;4.20;;
7983;SDS011;4037;47.980;10.172;2023-06-10T10:36:10;4.63;;;3.92;;
7983;SDS011;4037;47.980;10.172;2023-06-10T10:38:36;4.07;;;3.67;;
7983;SDS011;4037;47.980;10.172;2023-06-10T10:41:03;3.90;;;3.53;;
7983;SDS011;4037;47.980;10.172;2023-06-10T10:43:30;5.07;;;4.18;;
7983;SDS011;4037;47.980;10.172;2023-06-10T10:46:02;4.53;;;4.10;;
7983;SDS011;4037;47.980;10.172;2023-06-10T10:48:33;4.90;;;4.07;;
7983;SDS011;4037;47.980;10.172;2023-06-10T10:51:00;3.85;;;3.55;;
7983;SDS011;4037;47.980;10.172;2023-06-10T10:53:26;4.10;;;3.67;;
7983;SDS011;4037;47.980;10.172;2023-06-10T10:56:26;4.90;;;4.38;;
7983;SDS011;4037;47.980;10.172;2023-06-10T10:59:03;3.83;;;3.42;;
7983;SDS011;4037;47.980;10.172;2023-06-10T11:01:48;4.55;;;3.88;;
7983;SDS011;4037;47.980;10.172;2023-06-10T11:04:14;4.30;;;3.83;;
7983;SDS011;4037;47.980;10.172;2023-06-10T11:06:53;3.63;;;3.33;;
7983;SDS011;4037;47.980;10.172;2023-06-10T11:09:26;3.40;;;3.10;;
7983;SDS011;4037;47.980;10.172;2023-06-10T11:11:58;4.13;;;3.10;;
7983;SDS011;4037;47.980;10.172;2023-06-10T11:14:28;3.28;;;2.97;;
7983;SDS011;4037;47.980;10.172;2023-06-10T11:16:56;4.70;;;3.38;;
7983;SDS011;4037;47.980;10.172;2023-06-10T11:19:34;3.50;;;3.20;;
7983;SDS011;4037;47.980;10.172;2023-06-10T11:22:01;3.38;;;2.65;;
7983;SDS011;4037;47.980;10.172;2023-06-10T11:24:28;3.00;;;2.65;;
7983;SDS011;4037;47.980;10.172;2023-06-10T11:26:55;3.03;;;2.75;;
7983;SDS011;4037;47.980;10.172;2023-06-10T11:29:47;3.35;;;3.05;;
7983;SDS011;4037;47.980;10.172;2023-06-10T11:32:20;2.92;;;2.63;;
7983;SDS011;4037;47.980;10.172;2023-06-10T11:34:51;3.00;;;2.80;;
7983;SDS011;4037;47.980;10.172;2023-06-10T11:37:18;4.38;;;2.83;;
7983;SDS011;4037;47.980;10.172;2023-06-10T11:39:44;3.15;;;2.85;;
7983;SDS011;4037;47.980;10.172;2023-06-10T11:42:10;3.25;;;2.50;;
7983;SDS011;4037;47.980;10.172;2023-06-10T11:44:37;2.45;;;2.25;;
7983;SDS011;4037;47.980;10.172;2023-06-10T11:47:03;2.65;;;2.42;;
7983;SDS011;4037;47.980;10.172;2023-06-10T11:49:29;2.95;;;2.55;;
7983;SDS011;4037;47.980;10.172;2023-06-10T11:51:55;2.50;;;2.30;;
7983;SDS011;4037;47.980;10.172;2023-06-10T11:54:21;2.83;;;2.53;;
7983;SDS011;4037;47.980;10.172;2023-06-10T11:56:47;2.90;;;2.65;;
7983;SDS011;4037;47.980;10.172;2023-06-10T11:59:13;3.25;;;2.55;;
7983;SDS011;4037;47.980;10.172;2023-06-10T12:01:43;2.70;;;2.50;;
7983;SDS011;4037;47.980;10.172;2023-06-10T12:04:13;3.15;;;2.33;;
7983;SDS011;4037;47.980;10.172;2023-06-10T12:06:50;2.63;;;2.42;;
7983;SDS011;4037;47.980;10.172;2023-06-10T12:09:20;2.70;;;2.22;;
7983;SDS011;4037;47.980;10.172;2023-06-10T12:11:53;2.58;;;2.22;;
7983;SDS011;4037;47.980;10.172;2023-06-10T12:17:04;2.47;;;2.28;;
7983;SDS011;4037;47.980;10.172;2023-06-10T12:19:30;2.33;;;2.10;;
7983;SDS011;4037;47.980;10.172;2023-06-10T12:21:57;2.25;;;2.05;;
7983;SDS011;4037;47.980;10.172;2023-06-10T12:24:26;2.50;;;2.30;;
7983;SDS011;4037;47.980;10.172;2023-06-10T12:26:53;2.70;;;2.20;;
7983;SDS011;4037;47.980;10.172;2023-06-10T12:29:20;3.60;;;2.50;;
7983;SDS011;4037;47.980;10.172;2023-06-10T12:34:21;2.92;;;2.63;;
7983;SDS011;4037;47.980;10.172;2023-06-10T12:36:53;2.45;;;2.25;;
7983;SDS011;4037;47.980;10.172;2023-06-10T12:39:19;3.90;;;2.22;;
7983;SDS011;4037;47.980;10.172;2023-06-10T12:41:49;2.33;;;2.08;;
7983;SDS011;4037;47.980;10.172;2023-06-10T12:44:15;2.35;;;2.15;;
7983;SDS011;4037;47.980;10.172;2023-06-10T12:46:41;2.38;;;2.17;;
7983;SDS011;4037;47.980;10.172;2023-06-10T12:49:07;2.83;;;2.20;;
7983;SDS011;4037;47.980;10.172;2023-06-10T12:51:34;2.40;;;2.17;;
7983;SDS011;4037;47.980;10.172;2023-06-10T12:54:01;1.92;;;1.77;;
7983;SDS011;4037;47.980;10.172;2023-06-10T12:56:27;2.88;;;2.55;;
7983;SDS011;4037;47.980;10.172;2023-06-10T12:58:53;2.40;;;2.20;;
7983;SDS011;4037;47.980;10.172;2023-06-10T13:01:19;2.20;;;2.00;;
7983;SDS011;4037;47.980;10.172;2023-06-10T13:03:46;2.22;;;2.03;;
7983;SDS011;4037;47.980;10.172;2023-06-10T13:06:12;2.13;;;1.90;;
7983;SDS011;4037;47.980;10.172;2023-06-10T13:08:38;2.72;;;2.22;;
7983;SDS011;4037;47.980;10.172;2023-06-10T13:11:04;3.65;;;2.60;;
7983;SDS011;4037;47.980;10.172;2023-06-10T13:13:30;2.90;;;2.70;;
7983;SDS011;4037;47.980;10.172;2023-06-10T13:15:56;2.67;;;2.20;;
7983;SDS011;4037;47.980;10.172;2023-06-10T13:18:22;2.63;;;2.40;;
7983;SDS011;4037;47.980;10.172;2023-06-10T13:20:48;2.33;;;2.13;;
7983;SDS011;4037;47.980;10.172;2023-06-10T13:23:14;2.33;;;2.05;;
7983;SDS011;4037;47.980;10.172;2023-06-10T13:25:40;2.70;;;2.50;;
7983;SDS011;4037;47.980;10.172;2023-06-10T13:28:09;2.47;;;2.22;;
7983;SDS011;4037;47.980;10.172;2023-06-10T13:30:36;2.75;;;2.55;;
7983;SDS011;4037;47.980;10.172;2023-06-10T13:33:02;2.85;;;2.60;;
7983;SDS011;4037;47.980;10.172;2023-06-10T13:35:28;3.10;;;2.28;;
7983;SDS011;4037;47.980;10.172;2023-06-10T13:37:54;2.83;;;2.47;;
7983;SDS011;4037;47.980;10.172;2023-06-10T13:40:21;3.08;;;2.53;;
7983;SDS011;4037;47.980;10.172;2023-06-10T13:42:47;3.65;;;2.67;;
7983;SDS011;4037;47.980;10.172;2023-06-10T13:45:15;2.55;;;2.35;;
7983;SDS011;4037;47.980;10.172;2023-06-10T13:47:42;2.40;;;2.10;;
7983;SDS011;4037;47.980;10.172;2023-06-10T13:50:08;3.08;;;2.78;;
7983;SDS011;4037;47.980;10.172;2023-06-10T13:52:34;4.03;;;3.22;;
7983;SDS011;4037;47.980;10.172;2023-06-10T13:55:00;3.53;;;3.20;;
7983;SDS011;4037;47.980;10.172;2023-06-10T13:57:26;3.30;;;3.00;;
7983;SDS011;4037;47.980;10.172;2023-06-10T13:59:52;2.95;;;2.67;;
7983;SDS011;4037;47.980;10.172;2023-06-10T14:02:18;4.45;;;2.33;;
7983;SDS011;4037;47.980;10.172;2023-06-10T14:04:44;2.90;;;2.65;;
7983;SDS011;4037;47.980;10.172;2023-06-10T14:07:10;2.97;;;2.67;;
7983;SDS011;4037;47.980;10.172;2023-06-10T14:09:36;2.80;;;2.13;;
7983;SDS011;4037;47.980;10.172;2023-06-10T14:12:02;2.35;;;2.15;;
7983;SDS011;4037;47.980;10.172;2023-06-10T14:14:28;2.90;;;2.30;;
7983;SDS011;4037;47.980;10.172;2023-06-10T14:16:55;2.55;;;2.35;;
7983;SDS011;4037;47.980;10.172;2023-06-10T14:19:21;2.70;;;2.50;;
7983;SDS011;4037;47.980;10.172;2023-06-10T14:21:47;3.42;;;2.83;;
7983;SDS011;4037;47.980;10.172;2023-06-10T14:24:14;3.15;;;2.85;;
7983;SDS011;4037;47.980;10.172;2023-06-10T14:26:40;3.10;;;2.80;;
7983;SDS011;4037;47.980;10.172;2023-06-10T14:29:06;3.30;;;2.97;;
7983;SDS011;4037;47.980;10.172;2023-06-10T14:31:33;3.17;;;2.88;;
7983;SDS011;4037;47.980;10.172;2023-06-10T14:33:59;3.10;;;2.83;;
7983;SDS011;4037;47.980;10.172;2023-06-10T14:36:25;3.30;;;3.00;;
7983;SDS011;4037;47.980;10.172;2023-06-10T14:38:51;3.38;;;3.05;;
7983;SDS011;4037;47.980;10.172;2023-06-10T14:41:18;3.53;;;2.92;;
7983;SDS011;4037;47.980;10.172;2023-06-10T14:43:44;3.35;;;3.05;;
7983;SDS011;4037;47.980;10.172;2023-06-10T14:46:10;3.45;;;3.03;;
7983;SDS011;4037;47.980;10.172;2023-06-10T14:48:36;3.00;;;2.70;;
7983;SDS011;4037;47.980;10.172;2023-06-10T14:51:02;3.72;;;3.33;;
7983;SDS011;4037;47.980;10.172;2023-06-10T14:53:28;3.05;;;2.75;;
7983;SDS011;4037;47.980;10.172;2023-06-10T14:55:54;3.13;;;2.83;;
7983;SDS011;4037;47.980;10.172;2023-06-10T14:58:20;3.92;;;3.45;;
7983;SDS011;4037;47.980;10.172;2023-06-10T15:00:46;4.28;;;3.50;;
7983;SDS011;4037;47.980;10.172;2023-06-10T15:03:12;3.53;;;3.17;;
7983;SDS011;4037;47.980;10.172;2023-06-10T15:05:38;4.38;;;3.58;;
7983;SDS011;4037;47.980;10.172;2023-06-10T15:08:04;3.22;;;2.90;;
7983;SDS011;4037;47.980;10.172;2023-06-10T15:10:31;3.58;;;3.25;;
7983;SDS011;4037;47.980;10.172;2023-06-10T15:12:57;3.60;;;3.20;;